sensor_id;sensor_type;location;lat;lon;timestamp;P1;durP1;ratioP1;P2;durP2;ratioP2
22172;SDS011;11252;50.596;17.648;2023-05-07T00:00:22;19.57;;;14.27;;
22172;SDS011;11252;50.596;17.648;2023-05-07T00:02:49;23.80;;;15.03;;
22172;SDS011;11252;50.596;17.648;2023-05-07T00:05:17;17.33;;;13.60;;
22172;SDS011;11252;50.596;17.648;2023-05-07T00:07:47;19.77;;;13.80;;
22172;SDS011;11252;50.596;17.648;2023-05-07T00:10:14;21.27;;;14.00;;
22172;SDS011;11252;50.596;17.648;2023-05-07T00:12:42;19.23;;;14.27;;
22172;SDS011;11252;50.596;17.648;2023-05-07T00:15:10;17.33;;;13.30;;
22172;SDS011;11252;50.596;17.648;2023-05-07T00:17:38;16.17;;;12.57;;
22172;SDS011;11252;50.596;17.648;2023-05-07T00:20:06;15.23;;;12.97;;
22172;SDS011;11252;50.596;17.648;2023-05-07T00:22:34;16.53;;;13.07;;
22172;SDS011;11252;50.596;17.648;2023-05-07T00:25:02;15.03;;;12.87;;
22172;SDS011;11252;50.596;17.648;2023-05-07T00:27:30;16.33;;;12.67;;
22172;SDS011;11252;50.596;17.648;2023-05-07T00:30:00;16.83;;;12.07;;
22172;SDS011;11252;50.596;17.648;2023-05-07T00:32:27;14.17;;;11.17;;
22172;SDS011;11252;50.596;17.648;2023-05-07T00:34:55;13.93;;;11.70;;
22172;SDS011;11252;50.596;17.648;2023-05-07T00:37:22;13.30;;;11.43;;
22172;SDS011;11252;50.596;17.648;2023-05-07T00:39:50;15.00;;;11.83;;
22172;SDS011;11252;50.596;17.648;2023-05-07T00:42:17;13.53;;;12.13;;
22172;SDS011;11252;50.596;17.648;2023-05-07T00:44:45;15.63;;;12.57;;
22172;SDS011;11252;50.596;17.648;2023-05-07T00:47:12;14.20;;;12.33;;
22172;SDS011;11252;50.596;17.648;2023-05-07T00:49:44;15.13;;;13.30;;
22172;SDS011;11252;50.596;17.648;2023-05-07T00:52:15;14.43;;;12.83;;
22172;SDS011;11252;50.596;17.648;2023-05-07T00:54:47;13.13;;;11.87;;
22172;SDS011;11252;50.596;17.648;2023-05-07T00:57:14;12.63;;;11.33;;
22172;SDS011;11252;50.596;17.648;2023-05-07T00:59:43;12.10;;;10.93;;
22172;SDS011;11252;50.596;17.648;2023-05-07T01:02:11;12.37;;;11.17;;
22172;SDS011;11252;50.596;17.648;2023-05-07T01:04:38;13.57;;;11.97;;
22172;SDS011;11252;50.596;17.648;2023-05-07T01:07:07;12.23;;;11.13;;
22172;SDS011;11252;50.596;17.648;2023-05-07T01:09:35;16.27;;;12.13;;
22172;SDS011;11252;50.596;17.648;2023-05-07T01:12:04;12.53;;;11.23;;
22172;SDS011;11252;50.596;17.648;2023-05-07T01:14:32;12.17;;;10.97;;
22172;SDS011;11252;50.596;17.648;2023-05-07T01:17:01;11.73;;;10.63;;
22172;SDS011;11252;50.596;17.648;2023-05-07T01:19:28;12.70;;;11.37;;
22172;SDS011;11252;50.596;17.648;2023-05-07T01:21:59;13.67;;;12.00;;
22172;SDS011;11252;50.596;17.648;2023-05-07T01:24:31;13.40;;;12.00;;
22172;SDS011;11252;50.596;17.648;2023-05-07T01:26:59;12.33;;;11.13;;
22172;SDS011;11252;50.596;17.648;2023-05-07T01:29:28;12.73;;;11.30;;
22172;SDS011;11252;50.596;17.648;2023-05-07T01:31:57;11.03;;;9.93;;
22172;SDS011;11252;50.596;17.648;2023-05-07T01:34:30;10.50;;;9.50;;
22172;SDS011;11252;50.596;17.648;2023-05-07T01:36:59;8.90;;;8.17;;
22172;SDS011;11252;50.596;17.648;2023-05-07T01:39:28;9.00;;;8.20;;
22172;SDS011;11252;50.596;17.648;2023-05-07T01:41:57;10.57;;;8.13;;
22172;SDS011;11252;50.596;17.648;2023-05-07T01:44:26;10.17;;;9.17;;
22172;SDS011;11252;50.596;17.648;2023-05-07T01:46:54;8.53;;;7.63;;
22172;SDS011;11252;50.596;17.648;2023-05-07T01:49:22;8.73;;;7.77;;
22172;SDS011;11252;50.596;17.648;2023-05-07T01:51:49;8.20;;;7.33;;
22172;SDS011;11252;50.596;17.648;2023-05-07T01:54:17;7.60;;;6.83;;
22172;SDS011;11252;50.596;17.648;2023-05-07T01:56:45;8.50;;;7.60;;
22172;SDS011;11252;50.596;17.648;2023-05-07T01:59:15;8.77;;;7.80;;
22172;SDS011;11252;50.596;17.648;2023-05-07T02:01:44;8.80;;;7.97;;
22172;SDS011;11252;50.596;17.648;2023-05-07T02:04:11;10.27;;;9.30;;
22172;SDS011;11252;50.596;17.648;2023-05-07T02:06:39;9.60;;;8.70;;
22172;SDS011;11252;50.596;17.648;2023-05-07T02:09:06;8.70;;;7.90;;
22172;SDS011;11252;50.596;17.648;2023-05-07T02:11:35;8.23;;;7.07;;
22172;SDS011;11252;50.596;17.648;2023-05-07T02:14:03;7.73;;;6.97;;
22172;SDS011;11252;50.596;17.648;2023-05-07T02:16:30;7.70;;;7.10;;
22172;SDS011;11252;50.596;17.648;2023-05-07T02:18:58;10.30;;;8.17;;
22172;SDS011;11252;50.596;17.648;2023-05-07T02:21:25;21.93;;;15.00;;
22172;SDS011;11252;50.596;17.648;2023-05-07T02:23:59;9.20;;;6.63;;
22172;SDS011;11252;50.596;17.648;2023-05-07T02:26:29;7.33;;;6.63;;
22172;SDS011;11252;50.596;17.648;2023-05-07T02:28:57;7.13;;;6.43;;
22172;SDS011;11252;50.596;17.648;2023-05-07T02:31:25;7.10;;;6.40;;
22172;SDS011;11252;50.596;17.648;2023-05-07T02:33:53;6.93;;;6.33;;
22172;SDS011;11252;50.596;17.648;2023-05-07T02:36:20;5.90;;;5.30;;
22172;SDS011;11252;50.596;17.648;2023-05-07T02:38:47;6.73;;;5.40;;
22172;SDS011;11252;50.596;17.648;2023-05-07T02:41:15;7.23;;;5.53;;
22172;SDS011;11252;50.596;17.648;2023-05-07T02:43:42;6.00;;;5.40;;
22172;SDS011;11252;50.596;17.648;2023-05-07T02:46:10;6.63;;;5.03;;
22172;SDS011;11252;50.596;17.648;2023-05-07T02:48:37;9.23;;;5.50;;
22172;SDS011;11252;50.596;17.648;2023-05-07T02:51:05;7.03;;;5.50;;
22172;SDS011;11252;50.596;17.648;2023-05-07T02:53:33;7.57;;;5.63;;
22172;SDS011;11252;50.596;17.648;2023-05-07T02:56:00;6.13;;;4.80;;
22172;SDS011;11252;50.596;17.648;2023-05-07T02:58:28;6.10;;;4.80;;
22172;SDS011;11252;50.596;17.648;2023-05-07T03:00:56;6.70;;;4.50;;
22172;SDS011;11252;50.596;17.648;2023-05-07T03:03:24;5.67;;;3.97;;
22172;SDS011;11252;50.596;17.648;2023-05-07T03:05:51;4.97;;;4.47;;
22172;SDS011;11252;50.596;17.648;2023-05-07T03:08:19;7.20;;;3.87;;
22172;SDS011;11252;50.596;17.648;2023-05-07T03:10:47;8.83;;;5.07;;
22172;SDS011;11252;50.596;17.648;2023-05-07T03:13:14;5.60;;;5.10;;
22172;SDS011;11252;50.596;17.648;2023-05-07T03:15:42;7.77;;;7.00;;
22172;SDS011;11252;50.596;17.648;2023-05-07T03:18:09;10.37;;;8.73;;
22172;SDS011;11252;50.596;17.648;2023-05-07T03:20:37;5.90;;;5.30;;
22172;SDS011;11252;50.596;17.648;2023-05-07T03:23:04;7.47;;;5.00;;
22172;SDS011;11252;50.596;17.648;2023-05-07T03:25:32;6.67;;;5.17;;
22172;SDS011;11252;50.596;17.648;2023-05-07T03:28:00;6.57;;;5.80;;
22172;SDS011;11252;50.596;17.648;2023-05-07T03:30:27;6.33;;;5.63;;
22172;SDS011;11252;50.596;17.648;2023-05-07T03:32:55;6.63;;;5.90;;
22172;SDS011;11252;50.596;17.648;2023-05-07T03:35:23;8.93;;;5.63;;
22172;SDS011;11252;50.596;17.648;2023-05-07T03:37:50;8.33;;;6.10;;
22172;SDS011;11252;50.596;17.648;2023-05-07T03:40:18;6.57;;;5.27;;
22172;SDS011;11252;50.596;17.648;2023-05-07T03:42:46;6.27;;;5.67;;
22172;SDS011;11252;50.596;17.648;2023-05-07T03:45:14;6.13;;;5.53;;
22172;SDS011;11252;50.596;17.648;2023-05-07T03:47:42;6.80;;;6.00;;
22172;SDS011;11252;50.596;17.648;2023-05-07T03:50:09;10.37;;;7.60;;
22172;SDS011;11252;50.596;17.648;2023-05-07T03:52:37;8.50;;;7.03;;
22172;SDS011;11252;50.596;17.648;2023-05-07T03:55:05;11.37;;;7.97;;
22172;SDS011;11252;50.596;17.648;2023-05-07T03:57:32;8.70;;;7.53;;
22172;SDS011;11252;50.596;17.648;2023-05-07T04:00:00;9.97;;;7.87;;
22172;SDS011;11252;50.596;17.648;2023-05-07T04:02:29;12.60;;;8.43;;
22172;SDS011;11252;50.596;17.648;2023-05-07T04:04:57;9.27;;;8.33;;
22172;SDS011;11252;50.596;17.648;2023-05-07T04:07:25;10.93;;;7.73;;
22172;SDS011;11252;50.596;17.648;2023-05-07T04:09:53;9.63;;;7.57;;
22172;SDS011;11252;50.596;17.648;2023-05-07T04:12:20;8.20;;;7.27;;
22172;SDS011;11252;50.596;17.648;2023-05-07T04:14:48;8.87;;;7.83;;
22172;SDS011;11252;50.596;17.648;2023-05-07T04:17:15;10.67;;;8.03;;
22172;SDS011;11252;50.596;17.648;2023-05-07T04:19:43;10.20;;;8.10;;
22172;SDS011;11252;50.596;17.648;2023-05-07T04:22:12;10.33;;;7.93;;
22172;SDS011;11252;50.596;17.648;2023-05-07T04:24:39;10.57;;;7.90;;
22172;SDS011;11252;50.596;17.648;2023-05-07T04:27:06;10.97;;;8.60;;
22172;SDS011;11252;50.596;17.648;2023-05-07T04:29:34;9.33;;;8.43;;
22172;SDS011;11252;50.596;17.648;2023-05-07T04:32:01;9.10;;;8.10;;
22172;SDS011;11252;50.596;17.648;2023-05-07T04:34:29;8.23;;;7.30;;
22172;SDS011;11252;50.596;17.648;2023-05-07T04:36:58;8.43;;;7.63;;
22172;SDS011;11252;50.596;17.648;2023-05-07T04:39:26;13.60;;;12.20;;
22172;SDS011;11252;50.596;17.648;2023-05-07T04:41:54;9.23;;;8.33;;
22172;SDS011;11252;50.596;17.648;2023-05-07T04:44:22;8.30;;;7.47;;
22172;SDS011;11252;50.596;17.648;2023-05-07T04:46:49;6.20;;;5.60;;
22172;SDS011;11252;50.596;17.648;2023-05-07T04:49:17;6.50;;;5.57;;
22172;SDS011;11252;50.596;17.648;2023-05-07T04:51:44;8.23;;;6.20;;
22172;SDS011;11252;50.596;17.648;2023-05-07T04:54:12;9.00;;;6.90;;
22172;SDS011;11252;50.596;17.648;2023-05-07T04:56:40;10.57;;;7.07;;
22172;SDS011;11252;50.596;17.648;2023-05-07T04:59:08;7.37;;;6.67;;
22172;SDS011;11252;50.596;17.648;2023-05-07T05:01:35;7.80;;;7.00;;
22172;SDS011;11252;50.596;17.648;2023-05-07T05:04:04;7.80;;;7.03;;
22172;SDS011;11252;50.596;17.648;2023-05-07T05:06:32;7.83;;;6.93;;
22172;SDS011;11252;50.596;17.648;2023-05-07T05:08:59;8.80;;;7.93;;
22172;SDS011;11252;50.596;17.648;2023-05-07T05:11:28;8.53;;;7.47;;
22172;SDS011;11252;50.596;17.648;2023-05-07T05:13:59;9.47;;;8.47;;
22172;SDS011;11252;50.596;17.648;2023-05-07T05:16:27;10.90;;;8.73;;
22172;SDS011;11252;50.596;17.648;2023-05-07T05:18:54;9.90;;;8.37;;
22172;SDS011;11252;50.596;17.648;2023-05-07T05:21:22;7.70;;;6.90;;
22172;SDS011;11252;50.596;17.648;2023-05-07T05:23:49;7.77;;;7.07;;
22172;SDS011;11252;50.596;17.648;2023-05-07T05:26:17;8.00;;;7.00;;
22172;SDS011;11252;50.596;17.648;2023-05-07T05:28:45;8.07;;;6.87;;
22172;SDS011;11252;50.596;17.648;2023-05-07T05:31:12;7.10;;;6.33;;
22172;SDS011;11252;50.596;17.648;2023-05-07T05:33:40;6.97;;;5.83;;
22172;SDS011;11252;50.596;17.648;2023-05-07T05:36:11;6.30;;;5.67;;
22172;SDS011;11252;50.596;17.648;2023-05-07T05:38:39;6.73;;;6.00;;
22172;SDS011;11252;50.596;17.648;2023-05-07T05:41:06;6.40;;;5.73;;
22172;SDS011;11252;50.596;17.648;2023-05-07T05:43:34;8.40;;;7.60;;
22172;SDS011;11252;50.596;17.648;2023-05-07T05:46:02;8.83;;;8.03;;
22172;SDS011;11252;50.596;17.648;2023-05-07T05:48:31;8.53;;;7.63;;
22172;SDS011;11252;50.596;17.648;2023-05-07T05:50:58;9.60;;;8.80;;
22172;SDS011;11252;50.596;17.648;2023-05-07T05:53:25;10.37;;;9.30;;
22172;SDS011;11252;50.596;17.648;2023-05-07T05:55:53;14.93;;;13.30;;
22172;SDS011;11252;50.596;17.648;2023-05-07T05:58:21;9.80;;;8.83;;
22172;SDS011;11252;50.596;17.648;2023-05-07T06:00:49;12.60;;;10.13;;
22172;SDS011;11252;50.596;17.648;2023-05-07T06:03:18;6.53;;;5.97;;
22172;SDS011;11252;50.596;17.648;2023-05-07T06:05:46;6.20;;;5.60;;
22172;SDS011;11252;50.596;17.648;2023-05-07T06:08:13;4.80;;;4.30;;
22172;SDS011;11252;50.596;17.648;2023-05-07T06:10:41;5.23;;;4.77;;
22172;SDS011;11252;50.596;17.648;2023-05-07T06:13:09;7.03;;;4.90;;
22172;SDS011;11252;50.596;17.648;2023-05-07T06:15:37;5.10;;;4.60;;
22172;SDS011;11252;50.596;17.648;2023-05-07T06:18:04;5.20;;;4.77;;
22172;SDS011;11252;50.596;17.648;2023-05-07T06:20:32;4.63;;;4.00;;
22172;SDS011;11252;50.596;17.648;2023-05-07T06:22:59;4.53;;;4.07;;
22172;SDS011;11252;50.596;17.648;2023-05-07T06:25:27;4.83;;;3.80;;
22172;SDS011;11252;50.596;17.648;2023-05-07T06:27:54;4.23;;;3.27;;
22172;SDS011;11252;50.596;17.648;2023-05-07T06:30:24;4.40;;;3.40;;
22172;SDS011;11252;50.596;17.648;2023-05-07T06:32:53;4.63;;;4.23;;
22172;SDS011;11252;50.596;17.648;2023-05-07T06:35:21;6.33;;;5.73;;
22172;SDS011;11252;50.596;17.648;2023-05-07T06:37:48;7.93;;;7.10;;
22172;SDS011;11252;50.596;17.648;2023-05-07T06:40:16;4.57;;;4.17;;
22172;SDS011;11252;50.596;17.648;2023-05-07T06:42:43;3.90;;;3.60;;
22172;SDS011;11252;50.596;17.648;2023-05-07T06:45:10;5.40;;;4.90;;
22172;SDS011;11252;50.596;17.648;2023-05-07T06:47:38;3.50;;;3.20;;
22172;SDS011;11252;50.596;17.648;2023-05-07T06:50:05;3.17;;;2.87;;
22172;SDS011;11252;50.596;17.648;2023-05-07T06:52:34;3.60;;;3.30;;
22172;SDS011;11252;50.596;17.648;2023-05-07T06:55:02;3.83;;;3.43;;
22172;SDS011;11252;50.596;17.648;2023-05-07T06:57:29;4.30;;;3.30;;
22172;SDS011;11252;50.596;17.648;2023-05-07T06:59:57;3.37;;;3.17;;
22172;SDS011;11252;50.596;17.648;2023-05-07T07:02:25;4.40;;;4.00;;
22172;SDS011;11252;50.596;17.648;2023-05-07T07:04:52;3.67;;;3.37;;
22172;SDS011;11252;50.596;17.648;2023-05-07T07:07:20;12.60;;;8.30;;
22172;SDS011;11252;50.596;17.648;2023-05-07T07:09:47;7.20;;;5.80;;
22172;SDS011;11252;50.596;17.648;2023-05-07T07:12:15;4.93;;;4.43;;
22172;SDS011;11252;50.596;17.648;2023-05-07T07:14:43;6.90;;;4.70;;
22172;SDS011;11252;50.596;17.648;2023-05-07T07:17:10;7.77;;;6.97;;
22172;SDS011;11252;50.596;17.648;2023-05-07T07:19:38;6.33;;;5.60;;
22172;SDS011;11252;50.596;17.648;2023-05-07T07:22:06;7.53;;;6.73;;
22172;SDS011;11252;50.596;17.648;2023-05-07T07:24:33;7.97;;;7.27;;
22172;SDS011;11252;50.596;17.648;2023-05-07T07:27:01;7.20;;;6.50;;
22172;SDS011;11252;50.596;17.648;2023-05-07T07:29:28;7.97;;;7.27;;
22172;SDS011;11252;50.596;17.648;2023-05-07T07:31:56;5.67;;;5.17;;
22172;SDS011;11252;50.596;17.648;2023-05-07T07:34:23;5.20;;;4.63;;
22172;SDS011;11252;50.596;17.648;2023-05-07T07:36:51;5.43;;;4.93;;
22172;SDS011;11252;50.596;17.648;2023-05-07T07:39:18;8.47;;;6.20;;
22172;SDS011;11252;50.596;17.648;2023-05-07T07:41:46;6.57;;;5.90;;
22172;SDS011;11252;50.596;17.648;2023-05-07T07:44:13;5.97;;;4.70;;
22172;SDS011;11252;50.596;17.648;2023-05-07T07:46:42;5.23;;;4.30;;
22172;SDS011;11252;50.596;17.648;2023-05-07T07:49:09;5.83;;;4.23;;
22172;SDS011;11252;50.596;17.648;2023-05-07T07:51:36;4.70;;;4.30;;
22172;SDS011;11252;50.596;17.648;2023-05-07T07:54:05;4.53;;;4.23;;
22172;SDS011;11252;50.596;17.648;2023-05-07T07:56:32;4.60;;;4.20;;
22172;SDS011;11252;50.596;17.648;2023-05-07T07:59:00;4.80;;;4.40;;
22172;SDS011;11252;50.596;17.648;2023-05-07T08:01:29;4.70;;;4.30;;
22172;SDS011;11252;50.596;17.648;2023-05-07T08:03:57;4.53;;;4.07;;
22172;SDS011;11252;50.596;17.648;2023-05-07T08:06:30;4.30;;;3.90;;
22172;SDS011;11252;50.596;17.648;2023-05-07T08:08:58;7.90;;;3.80;;
22172;SDS011;11252;50.596;17.648;2023-05-07T08:11:26;4.57;;;4.17;;
22172;SDS011;11252;50.596;17.648;2023-05-07T08:13:54;4.23;;;3.87;;
22172;SDS011;11252;50.596;17.648;2023-05-07T08:16:21;3.53;;;3.23;;
22172;SDS011;11252;50.596;17.648;2023-05-07T08:18:49;5.43;;;3.13;;
22172;SDS011;11252;50.596;17.648;2023-05-07T08:21:17;5.10;;;3.10;;
22172;SDS011;11252;50.596;17.648;2023-05-07T08:23:44;3.97;;;3.43;;
22172;SDS011;11252;50.596;17.648;2023-05-07T08:26:12;3.43;;;3.13;;
22172;SDS011;11252;50.596;17.648;2023-05-07T08:28:39;3.90;;;3.47;;
22172;SDS011;11252;50.596;17.648;2023-05-07T08:31:07;2.90;;;2.70;;
22172;SDS011;11252;50.596;17.648;2023-05-07T08:33:34;3.67;;;3.37;;
22172;SDS011;11252;50.596;17.648;2023-05-07T08:36:02;4.00;;;3.70;;
22172;SDS011;11252;50.596;17.648;2023-05-07T08:38:29;5.50;;;5.00;;
22172;SDS011;11252;50.596;17.648;2023-05-07T08:40:58;4.13;;;3.83;;
22172;SDS011;11252;50.596;17.648;2023-05-07T08:43:26;6.53;;;6.03;;
22172;SDS011;11252;50.596;17.648;2023-05-07T08:45:54;6.23;;;5.67;;
22172;SDS011;11252;50.596;17.648;2023-05-07T08:48:24;7.43;;;6.83;;
22172;SDS011;11252;50.596;17.648;2023-05-07T08:50:54;7.87;;;7.27;;
22172;SDS011;11252;50.596;17.648;2023-05-07T08:53:21;5.20;;;4.70;;
22172;SDS011;11252;50.596;17.648;2023-05-07T08:55:49;6.17;;;5.67;;
22172;SDS011;11252;50.596;17.648;2023-05-07T08:58:17;6.00;;;4.00;;
22172;SDS011;11252;50.596;17.648;2023-05-07T09:00:45;7.17;;;6.57;;
22172;SDS011;11252;50.596;17.648;2023-05-07T09:03:14;4.40;;;4.00;;
22172;SDS011;11252;50.596;17.648;2023-05-07T09:05:42;4.97;;;4.47;;
22172;SDS011;11252;50.596;17.648;2023-05-07T09:08:13;4.97;;;4.50;;
22172;SDS011;11252;50.596;17.648;2023-05-07T09:10:42;3.40;;;3.10;;
22172;SDS011;11252;50.596;17.648;2023-05-07T09:13:11;4.00;;;3.40;;
22172;SDS011;11252;50.596;17.648;2023-05-07T09:15:41;3.80;;;3.50;;
22172;SDS011;11252;50.596;17.648;2023-05-07T09:18:08;4.60;;;4.20;;
22172;SDS011;11252;50.596;17.648;2023-05-07T09:20:36;4.30;;;3.70;;
22172;SDS011;11252;50.596;17.648;2023-05-07T09:23:04;3.57;;;3.27;;
22172;SDS011;11252;50.596;17.648;2023-05-07T09:25:34;4.47;;;3.63;;
22172;SDS011;11252;50.596;17.648;2023-05-07T09:28:03;3.77;;;3.47;;
22172;SDS011;11252;50.596;17.648;2023-05-07T09:30:36;3.37;;;3.17;;
22172;SDS011;11252;50.596;17.648;2023-05-07T09:33:04;4.47;;;4.10;;
22172;SDS011;11252;50.596;17.648;2023-05-07T09:35:31;4.10;;;3.70;;
22172;SDS011;11252;50.596;17.648;2023-05-07T09:37:59;4.07;;;3.77;;
22172;SDS011;11252;50.596;17.648;2023-05-07T09:40:30;3.67;;;3.37;;
22172;SDS011;11252;50.596;17.648;2023-05-07T09:43:08;4.60;;;3.80;;
22172;SDS011;11252;50.596;17.648;2023-05-07T09:45:38;5.00;;;3.70;;
22172;SDS011;11252;50.596;17.648;2023-05-07T09:48:05;4.63;;;3.20;;
22172;SDS011;11252;50.596;17.648;2023-05-07T09:50:38;5.50;;;5.00;;
22172;SDS011;11252;50.596;17.648;2023-05-07T09:53:18;4.40;;;4.00;;
22172;SDS011;11252;50.596;17.648;2023-05-07T09:55:45;5.07;;;4.67;;
22172;SDS011;11252;50.596;17.648;2023-05-07T09:58:13;5.20;;;4.70;;
22172;SDS011;11252;50.596;17.648;2023-05-07T10:00:43;5.50;;;5.00;;
22172;SDS011;11252;50.596;17.648;2023-05-07T10:03:14;5.67;;;4.90;;
22172;SDS011;11252;50.596;17.648;2023-05-07T10:05:41;5.60;;;4.10;;
22172;SDS011;11252;50.596;17.648;2023-05-07T10:08:11;4.97;;;4.57;;
22172;SDS011;11252;50.596;17.648;2023-05-07T10:10:38;7.50;;;6.10;;
22172;SDS011;11252;50.596;17.648;2023-05-07T10:13:07;5.40;;;4.90;;
22172;SDS011;11252;50.596;17.648;2023-05-07T10:15:37;4.67;;;4.20;;
22172;SDS011;11252;50.596;17.648;2023-05-07T10:18:05;5.67;;;4.27;;
22172;SDS011;11252;50.596;17.648;2023-05-07T10:20:34;5.90;;;4.40;;
22172;SDS011;11252;50.596;17.648;2023-05-07T10:23:04;4.30;;;3.90;;
22172;SDS011;11252;50.596;17.648;2023-05-07T10:25:33;11.30;;;8.60;;
22172;SDS011;11252;50.596;17.648;2023-05-07T10:28:05;12.17;;;10.97;;
22172;SDS011;11252;50.596;17.648;2023-05-07T10:33:48;6.93;;;6.20;;
22172;SDS011;11252;50.596;17.648;2023-05-07T10:36:18;8.93;;;8.20;;
22172;SDS011;11252;50.596;17.648;2023-05-07T10:38:49;5.53;;;5.03;;
22172;SDS011;11252;50.596;17.648;2023-05-07T10:41:17;9.83;;;9.07;;
22172;SDS011;11252;50.596;17.648;2023-05-07T10:43:45;6.80;;;6.13;;
22172;SDS011;11252;50.596;17.648;2023-05-07T10:46:19;8.47;;;7.73;;
22172;SDS011;11252;50.596;17.648;2023-05-07T10:51:31;5.67;;;5.27;;
22172;SDS011;11252;50.596;17.648;2023-05-07T10:56:37;4.80;;;4.40;;
22172;SDS011;11252;50.596;17.648;2023-05-07T11:01:54;4.03;;;3.73;;
22172;SDS011;11252;50.596;17.648;2023-05-07T11:04:24;5.43;;;5.03;;
22172;SDS011;11252;50.596;17.648;2023-05-07T11:15:08;9.70;;;8.70;;
22172;SDS011;11252;50.596;17.648;2023-05-07T11:17:56;8.67;;;7.97;;
22172;SDS011;11252;50.596;17.648;2023-05-07T11:26:02;7.13;;;6.40;;
22172;SDS011;11252;50.596;17.648;2023-05-07T11:28:33;7.27;;;6.67;;
22172;SDS011;11252;50.596;17.648;2023-05-07T11:31:10;7.47;;;6.87;;
22172;SDS011;11252;50.596;17.648;2023-05-07T11:33:38;7.17;;;6.57;;
22172;SDS011;11252;50.596;17.648;2023-05-07T11:36:07;5.87;;;5.37;;
22172;SDS011;11252;50.596;17.648;2023-05-07T11:38:36;6.50;;;5.90;;
22172;SDS011;11252;50.596;17.648;2023-05-07T11:41:04;11.67;;;10.57;;
22172;SDS011;11252;50.596;17.648;2023-05-07T11:43:32;10.43;;;9.17;;
22172;SDS011;11252;50.596;17.648;2023-05-07T11:46:07;7.30;;;5.80;;
22172;SDS011;11252;50.596;17.648;2023-05-07T11:48:38;6.93;;;5.87;;
22172;SDS011;11252;50.596;17.648;2023-05-07T11:51:06;8.00;;;6.23;;
22172;SDS011;11252;50.596;17.648;2023-05-07T11:53:40;7.37;;;6.60;;
22172;SDS011;11252;50.596;17.648;2023-05-07T11:56:09;6.00;;;5.00;;
22172;SDS011;11252;50.596;17.648;2023-05-07T11:58:38;7.13;;;6.47;;
22172;SDS011;11252;50.596;17.648;2023-05-07T12:01:09;12.20;;;11.00;;
22172;SDS011;11252;50.596;17.648;2023-05-07T12:03:42;8.33;;;7.60;;
22172;SDS011;11252;50.596;17.648;2023-05-07T12:06:13;5.90;;;5.30;;
22172;SDS011;11252;50.596;17.648;2023-05-07T12:08:44;8.50;;;7.70;;
22172;SDS011;11252;50.596;17.648;2023-05-07T12:11:14;5.17;;;4.77;;
22172;SDS011;11252;50.596;17.648;2023-05-07T12:13:48;6.60;;;4.97;;
22172;SDS011;11252;50.596;17.648;2023-05-07T12:16:15;7.43;;;6.70;;
22172;SDS011;11252;50.596;17.648;2023-05-07T12:18:43;9.90;;;8.10;;
22172;SDS011;11252;50.596;17.648;2023-05-07T12:21:11;7.30;;;6.27;;
22172;SDS011;11252;50.596;17.648;2023-05-07T12:23:39;6.17;;;5.57;;
22172;SDS011;11252;50.596;17.648;2023-05-07T12:26:07;6.00;;;5.40;;
22172;SDS011;11252;50.596;17.648;2023-05-07T12:28:36;6.80;;;6.03;;
22172;SDS011;11252;50.596;17.648;2023-05-07T12:31:05;7.50;;;6.80;;
22172;SDS011;11252;50.596;17.648;2023-05-07T12:33:34;9.90;;;9.10;;
22172;SDS011;11252;50.596;17.648;2023-05-07T12:36:03;7.53;;;6.83;;
22172;SDS011;11252;50.596;17.648;2023-05-07T12:38:39;5.40;;;5.00;;
22172;SDS011;11252;50.596;17.648;2023-05-07T12:41:08;8.27;;;5.60;;
22172;SDS011;11252;50.596;17.648;2023-05-07T12:43:37;7.17;;;5.70;;
22172;SDS011;11252;50.596;17.648;2023-05-07T12:46:06;5.53;;;5.10;;
22172;SDS011;11252;50.596;17.648;2023-05-07T12:48:38;9.27;;;7.40;;
22172;SDS011;11252;50.596;17.648;2023-05-07T12:51:10;15.37;;;11.53;;
22172;SDS011;11252;50.596;17.648;2023-05-07T12:53:40;11.87;;;10.67;;
22172;SDS011;11252;50.596;17.648;2023-05-07T12:56:11;15.93;;;13.93;;
22172;SDS011;11252;50.596;17.648;2023-05-07T12:58:42;14.10;;;11.00;;
22172;SDS011;11252;50.596;17.648;2023-05-07T13:01:10;8.30;;;6.50;;
22172;SDS011;11252;50.596;17.648;2023-05-07T13:03:42;11.27;;;10.10;;
22172;SDS011;11252;50.596;17.648;2023-05-07T13:06:16;8.47;;;7.67;;
22172;SDS011;11252;50.596;17.648;2023-05-07T13:08:44;9.43;;;8.43;;
22172;SDS011;11252;50.596;17.648;2023-05-07T13:11:13;9.83;;;8.83;;
22172;SDS011;11252;50.596;17.648;2023-05-07T13:13:40;14.13;;;12.13;;
22172;SDS011;11252;50.596;17.648;2023-05-07T13:16:10;8.10;;;7.40;;
22172;SDS011;11252;50.596;17.648;2023-05-07T13:18:38;8.17;;;7.37;;
22172;SDS011;11252;50.596;17.648;2023-05-07T13:21:07;7.23;;;6.53;;
22172;SDS011;11252;50.596;17.648;2023-05-07T13:23:34;7.97;;;7.17;;
22172;SDS011;11252;50.596;17.648;2023-05-07T13:26:02;8.20;;;7.50;;
22172;SDS011;11252;50.596;17.648;2023-05-07T13:28:44;10.87;;;8.90;;
22172;SDS011;11252;50.596;17.648;2023-05-07T13:31:12;10.37;;;7.03;;
22172;SDS011;11252;50.596;17.648;2023-05-07T13:33:39;8.97;;;8.07;;
22172;SDS011;11252;50.596;17.648;2023-05-07T13:36:06;10.70;;;9.07;;
22172;SDS011;11252;50.596;17.648;2023-05-07T13:38:36;9.80;;;8.47;;
22172;SDS011;11252;50.596;17.648;2023-05-07T13:41:03;7.93;;;6.97;;
22172;SDS011;11252;50.596;17.648;2023-05-07T13:43:31;6.33;;;4.87;;
22172;SDS011;11252;50.596;17.648;2023-05-07T13:46:00;5.47;;;4.97;;
22172;SDS011;11252;50.596;17.648;2023-05-07T13:48:27;5.77;;;5.23;;
22172;SDS011;11252;50.596;17.648;2023-05-07T13:50:56;5.70;;;4.13;;
22172;SDS011;11252;50.596;17.648;2023-05-07T13:53:23;5.00;;;4.60;;
22172;SDS011;11252;50.596;17.648;2023-05-07T13:55:51;6.97;;;5.93;;
22172;SDS011;11252;50.596;17.648;2023-05-07T13:58:20;8.43;;;6.80;;
22172;SDS011;11252;50.596;17.648;2023-05-07T14:00:48;7.70;;;6.10;;
22172;SDS011;11252;50.596;17.648;2023-05-07T14:03:15;9.23;;;8.23;;
22172;SDS011;11252;50.596;17.648;2023-05-07T14:05:44;6.43;;;5.83;;
22172;SDS011;11252;50.596;17.648;2023-05-07T14:08:14;9.67;;;6.90;;
22172;SDS011;11252;50.596;17.648;2023-05-07T14:10:41;10.93;;;8.03;;
22172;SDS011;11252;50.596;17.648;2023-05-07T14:13:09;9.10;;;8.10;;
22172;SDS011;11252;50.596;17.648;2023-05-07T14:15:37;9.53;;;7.30;;
22172;SDS011;11252;50.596;17.648;2023-05-07T14:18:04;10.33;;;8.83;;
22172;SDS011;11252;50.596;17.648;2023-05-07T14:20:32;11.07;;;8.63;;
22172;SDS011;11252;50.596;17.648;2023-05-07T14:22:59;11.60;;;9.23;;
22172;SDS011;11252;50.596;17.648;2023-05-07T14:25:26;10.73;;;8.47;;
22172;SDS011;11252;50.596;17.648;2023-05-07T14:27:54;14.03;;;9.60;;
22172;SDS011;11252;50.596;17.648;2023-05-07T14:30:21;11.43;;;9.17;;
22172;SDS011;11252;50.596;17.648;2023-05-07T14:32:50;11.73;;;8.87;;
22172;SDS011;11252;50.596;17.648;2023-05-07T14:35:18;16.37;;;11.50;;
22172;SDS011;11252;50.596;17.648;2023-05-07T14:37:46;13.20;;;10.00;;
22172;SDS011;11252;50.596;17.648;2023-05-07T14:40:19;73.10;;;45.23;;
22172;SDS011;11252;50.596;17.648;2023-05-07T14:42:54;18.93;;;13.53;;
22172;SDS011;11252;50.596;17.648;2023-05-07T14:45:23;6.80;;;5.53;;
22172;SDS011;11252;50.596;17.648;2023-05-07T14:47:51;7.57;;;5.60;;
22172;SDS011;11252;50.596;17.648;2023-05-07T14:50:18;9.63;;;8.30;;
22172;SDS011;11252;50.596;17.648;2023-05-07T14:52:46;10.60;;;8.57;;
22172;SDS011;11252;50.596;17.648;2023-05-07T14:55:13;8.00;;;6.57;;
22172;SDS011;11252;50.596;17.648;2023-05-07T14:57:41;9.87;;;7.40;;
22172;SDS011;11252;50.596;17.648;2023-05-07T15:00:08;9.47;;;6.83;;